Harbor Beach, Michigan
Current Conditions -  °F | °C
As of 12:38 AM on Thursday 23 Oct 2014 (Local Time) from KBAX Reporting Station
Clear Clear  
Wind Chill: -2°   Ceiling: Unl
Heat Index: -2°   Visibility: 10mi
Dew Point: -2°   Wind: 0mph
Humidity: 100%   Direction: NA
Pressure: 30.29"   Gusts: NA
Location:  43.84°N, 82.65°W
Report Text: KBAX 230438Z AUTO 00000KT 10SM CLR M02/M02 A3029 RMK AO2 T10191019
Loading
Personal Weather Stations






























Interactive Weather Map
Tropical Storm Tracking
New forecast layout! Learn more

10-Day Weather Forecast

Advertisements
Track Severe Weather on mobile